sensor_id;sensor_type;location;lat;lon;timestamp;pressure;altitude;pressure_sealevel;temperature
54746;BMP180;40640;48.130;11.356;2022-07-29T00:02:40;95665.00;;;19.50
54746;BMP180;40640;48.130;11.356;2022-07-29T00:06:43;95662.00;;;19.50
54746;BMP180;40640;48.130;11.356;2022-07-29T00:10:47;95661.00;;;19.40
54746;BMP180;40640;48.130;11.356;2022-07-29T00:14:50;95658.00;;;19.30
54746;BMP180;40640;48.130;11.356;2022-07-29T00:18:53;95649.00;;;19.20
54746;BMP180;40640;48.130;11.356;2022-07-29T00:22:55;95652.00;;;19.20
54746;BMP180;40640;48.130;11.356;2022-07-29T00:27:00;95654.00;;;19.10
54746;BMP180;40640;48.130;11.356;2022-07-29T00:31:02;95656.00;;;19.10
54746;BMP180;40640;48.130;11.356;2022-07-29T00:35:06;95648.00;;;18.80
54746;BMP180;40640;48.130;11.356;2022-07-29T00:39:27;95657.00;;;18.70
54746;BMP180;40640;48.130;11.356;2022-07-29T00:43:31;95642.00;;;18.70
54746;BMP180;40640;48.130;11.356;2022-07-29T00:47:34;95633.00;;;18.70
54746;BMP180;40640;48.130;11.356;2022-07-29T00:51:38;95638.00;;;18.70
54746;BMP180;40640;48.130;11.356;2022-07-29T00:55:41;95616.00;;;18.80
54746;BMP180;40640;48.130;11.356;2022-07-29T00:59:45;95620.00;;;19.10
54746;BMP180;40640;48.130;11.356;2022-07-29T01:03:47;95615.00;;;19.20
54746;BMP180;40640;48.130;11.356;2022-07-29T01:07:52;95608.00;;;19.10
54746;BMP180;40640;48.130;11.356;2022-07-29T01:11:57;95608.00;;;19.10
54746;BMP180;40640;48.130;11.356;2022-07-29T01:16:06;95600.00;;;19.00
54746;BMP180;40640;48.130;11.356;2022-07-29T01:20:14;95589.00;;;19.00
54746;BMP180;40640;48.130;11.356;2022-07-29T01:24:40;95599.00;;;19.00
54746;BMP180;40640;48.130;11.356;2022-07-29T01:29:00;95601.00;;;19.10
54746;BMP180;40640;48.130;11.356;2022-07-29T01:33:12;95587.00;;;19.10
54746;BMP180;40640;48.130;11.356;2022-07-29T01:37:43;95590.00;;;18.90
54746;BMP180;40640;48.130;11.356;2022-07-29T01:41:50;95588.00;;;18.90
54746;BMP180;40640;48.130;11.356;2022-07-29T01:45:58;95585.00;;;18.90
54746;BMP180;40640;48.130;11.356;2022-07-29T01:50:07;95584.00;;;18.80
54746;BMP180;40640;48.130;11.356;2022-07-29T01:54:16;95586.00;;;18.80
54746;BMP180;40640;48.130;11.356;2022-07-29T01:58:21;95579.00;;;18.70
54746;BMP180;40640;48.130;11.356;2022-07-29T02:02:27;95577.00;;;18.70
54746;BMP180;40640;48.130;11.356;2022-07-29T02:06:33;95572.00;;;18.80
54746;BMP180;40640;48.130;11.356;2022-07-29T02:10:38;95568.00;;;18.70
54746;BMP180;40640;48.130;11.356;2022-07-29T02:14:47;95560.00;;;18.60
54746;BMP180;40640;48.130;11.356;2022-07-29T02:18:54;95555.00;;;18.50
54746;BMP180;40640;48.130;11.356;2022-07-29T02:22:58;95560.00;;;18.50
54746;BMP180;40640;48.130;11.356;2022-07-29T02:27:02;95559.00;;;18.50
54746;BMP180;40640;48.130;11.356;2022-07-29T02:31:05;95561.00;;;18.50
54746;BMP180;40640;48.130;11.356;2022-07-29T02:35:13;95554.00;;;18.40
54746;BMP180;40640;48.130;11.356;2022-07-29T02:39:17;95552.00;;;18.50
54746;BMP180;40640;48.130;11.356;2022-07-29T02:43:20;95543.00;;;18.40
54746;BMP180;40640;48.130;11.356;2022-07-29T02:47:27;95544.00;;;18.30
54746;BMP180;40640;48.130;11.356;2022-07-29T02:51:46;95544.00;;;18.20
54746;BMP180;40640;48.130;11.356;2022-07-29T02:55:56;95533.00;;;18.30
54746;BMP180;40640;48.130;11.356;2022-07-29T03:00:01;95537.00;;;18.30
54746;BMP180;40640;48.130;11.356;2022-07-29T03:04:07;95535.00;;;18.30
54746;BMP180;40640;48.130;11.356;2022-07-29T03:08:14;95533.00;;;18.30
54746;BMP180;40640;48.130;11.356;2022-07-29T03:12:19;95528.00;;;18.10
54746;BMP180;40640;48.130;11.356;2022-07-29T03:16:22;95517.00;;;17.90
54746;BMP180;40640;48.130;11.356;2022-07-29T03:20:26;95519.00;;;17.70
54746;BMP180;40640;48.130;11.356;2022-07-29T03:24:33;95515.00;;;17.50
54746;BMP180;40640;48.130;11.356;2022-07-29T03:28:36;95530.00;;;17.60
54746;BMP180;40640;48.130;11.356;2022-07-29T03:32:40;95529.00;;;17.40
54746;BMP180;40640;48.130;11.356;2022-07-29T03:36:45;95528.00;;;17.40
54746;BMP180;40640;48.130;11.356;2022-07-29T03:40:53;95544.00;;;17.20
54746;BMP180;40640;48.130;11.356;2022-07-29T03:44:57;95535.00;;;17.50
54746;BMP180;40640;48.130;11.356;2022-07-29T03:49:03;95530.00;;;17.80
54746;BMP180;40640;48.130;11.356;2022-07-29T03:53:07;95530.00;;;17.80
54746;BMP180;40640;48.130;11.356;2022-07-29T03:57:12;95528.00;;;17.90
54746;BMP180;40640;48.130;11.356;2022-07-29T04:01:16;95526.00;;;18.00
54746;BMP180;40640;48.130;11.356;2022-07-29T04:05:19;95539.00;;;18.20
54746;BMP180;40640;48.130;11.356;2022-07-29T04:09:22;95534.00;;;18.40
54746;BMP180;40640;48.130;11.356;2022-07-29T04:13:26;95550.00;;;18.50
54746;BMP180;40640;48.130;11.356;2022-07-29T04:17:29;95552.00;;;18.60
54746;BMP180;40640;48.130;11.356;2022-07-29T04:21:36;95556.00;;;18.60
54746;BMP180;40640;48.130;11.356;2022-07-29T04:25:40;95556.00;;;18.70
54746;BMP180;40640;48.130;11.356;2022-07-29T04:29:44;95556.00;;;18.70
54746;BMP180;40640;48.130;11.356;2022-07-29T04:33:58;95564.00;;;18.70
54746;BMP180;40640;48.130;11.356;2022-07-29T04:38:00;95565.00;;;18.80
54746;BMP180;40640;48.130;11.356;2022-07-29T04:42:04;95561.00;;;18.90
54746;BMP180;40640;48.130;11.356;2022-07-29T04:46:10;95569.00;;;18.80
54746;BMP180;40640;48.130;11.356;2022-07-29T04:50:13;95578.00;;;18.80
54746;BMP180;40640;48.130;11.356;2022-07-29T04:54:15;95570.00;;;18.90
54746;BMP180;40640;48.130;11.356;2022-07-29T04:58:19;95573.00;;;19.00
54746;BMP180;40640;48.130;11.356;2022-07-29T05:02:25;95574.00;;;19.00
54746;BMP180;40640;48.130;11.356;2022-07-29T05:06:28;95583.00;;;19.10
54746;BMP180;40640;48.130;11.356;2022-07-29T05:10:31;95591.00;;;19.30
54746;BMP180;40640;48.130;11.356;2022-07-29T05:14:35;95592.00;;;19.40
54746;BMP180;40640;48.130;11.356;2022-07-29T05:18:39;95596.00;;;19.40
54746;BMP180;40640;48.130;11.356;2022-07-29T05:22:42;95584.00;;;19.60
54746;BMP180;40640;48.130;11.356;2022-07-29T05:26:45;95589.00;;;19.70
54746;BMP180;40640;48.130;11.356;2022-07-29T05:30:47;95605.00;;;19.80
54746;BMP180;40640;48.130;11.356;2022-07-29T05:34:52;95596.00;;;20.10
54746;BMP180;40640;48.130;11.356;2022-07-29T05:38:55;95593.00;;;20.30
54746;BMP180;40640;48.130;11.356;2022-07-29T05:42:59;95590.00;;;20.20
54746;BMP180;40640;48.130;11.356;2022-07-29T05:47:01;95597.00;;;20.50
54746;BMP180;40640;48.130;11.356;2022-07-29T05:51:05;95594.00;;;21.00
54746;BMP180;40640;48.130;11.356;2022-07-29T05:55:09;95592.00;;;21.40
54746;BMP180;40640;48.130;11.356;2022-07-29T05:59:12;95591.00;;;21.70
54746;BMP180;40640;48.130;11.356;2022-07-29T06:03:18;95584.00;;;23.20
54746;BMP180;40640;48.130;11.356;2022-07-29T06:07:23;95580.00;;;25.60
54746;BMP180;40640;48.130;11.356;2022-07-29T06:11:25;95570.00;;;29.20
54746;BMP180;40640;48.130;11.356;2022-07-29T06:15:28;95566.00;;;31.80
54746;BMP180;40640;48.130;11.356;2022-07-29T06:19:34;95565.00;;;33.90
54746;BMP180;40640;48.130;11.356;2022-07-29T06:23:38;95571.00;;;34.00
54746;BMP180;40640;48.130;11.356;2022-07-29T06:27:41;95568.00;;;34.80
54746;BMP180;40640;48.130;11.356;2022-07-29T06:31:44;95572.00;;;36.70
54746;BMP180;40640;48.130;11.356;2022-07-29T06:35:47;95579.00;;;37.20
54746;BMP180;40640;48.130;11.356;2022-07-29T06:39:57;95588.00;;;36.70
54746;BMP180;40640;48.130;11.356;2022-07-29T06:44:13;95604.00;;;35.70
54746;BMP180;40640;48.130;11.356;2022-07-29T06:48:17;95619.00;;;31.90
54746;BMP180;40640;48.130;11.356;2022-07-29T06:52:20;95618.00;;;30.90
54746;BMP180;40640;48.130;11.356;2022-07-29T06:56:24;95634.00;;;29.50
54746;BMP180;40640;48.130;11.356;2022-07-29T07:00:27;95638.00;;;27.60
54746;BMP180;40640;48.130;11.356;2022-07-29T07:04:30;95640.00;;;26.50
54746;BMP180;40640;48.130;11.356;2022-07-29T07:08:33;95650.00;;;25.60
54746;BMP180;40640;48.130;11.356;2022-07-29T07:12:37;95659.00;;;24.70
54746;BMP180;40640;48.130;11.356;2022-07-29T07:16:40;95663.00;;;25.10
54746;BMP180;40640;48.130;11.356;2022-07-29T07:20:43;95655.00;;;25.30
54746;BMP180;40640;48.130;11.356;2022-07-29T07:24:46;95646.00;;;25.30
54746;BMP180;40640;48.130;11.356;2022-07-29T07:28:51;95654.00;;;25.30
54746;BMP180;40640;48.130;11.356;2022-07-29T07:32:54;95649.00;;;24.70
54746;BMP180;40640;48.130;11.356;2022-07-29T07:36:57;95650.00;;;24.40
54746;BMP180;40640;48.130;11.356;2022-07-29T07:41:00;95662.00;;;24.80
54746;BMP180;40640;48.130;11.356;2022-07-29T07:45:06;95655.00;;;24.70
54746;BMP180;40640;48.130;11.356;2022-07-29T07:49:17;95657.00;;;24.90
54746;BMP180;40640;48.130;11.356;2022-07-29T07:53:20;95646.00;;;25.50
54746;BMP180;40640;48.130;11.356;2022-07-29T07:57:23;95652.00;;;24.90
54746;BMP180;40640;48.130;11.356;2022-07-29T08:01:27;95661.00;;;25.00
54746;BMP180;40640;48.130;11.356;2022-07-29T08:05:48;95650.00;;;25.90
54746;BMP180;40640;48.130;11.356;2022-07-29T08:09:52;95652.00;;;26.60
54746;BMP180;40640;48.130;11.356;2022-07-29T08:13:55;95640.00;;;26.90
54746;BMP180;40640;48.130;11.356;2022-07-29T08:17:59;95638.00;;;27.80
54746;BMP180;40640;48.130;11.356;2022-07-29T08:22:09;95635.00;;;28.90
54746;BMP180;40640;48.130;11.356;2022-07-29T08:26:12;95636.00;;;29.60
54746;BMP180;40640;48.130;11.356;2022-07-29T08:30:15;95653.00;;;29.70
54746;BMP180;40640;48.130;11.356;2022-07-29T08:34:19;95645.00;;;29.00
54746;BMP180;40640;48.130;11.356;2022-07-29T08:38:28;95654.00;;;28.80
54746;BMP180;40640;48.130;11.356;2022-07-29T08:42:31;95656.00;;;28.50
54746;BMP180;40640;48.130;11.356;2022-07-29T08:46:37;95666.00;;;28.40
54746;BMP180;40640;48.130;11.356;2022-07-29T08:50:43;95666.00;;;28.90
54746;BMP180;40640;48.130;11.356;2022-07-29T08:54:48;95664.00;;;28.60
54746;BMP180;40640;48.130;11.356;2022-07-29T08:58:51;95660.00;;;28.60
54746;BMP180;40640;48.130;11.356;2022-07-29T09:02:56;95670.00;;;29.50
54746;BMP180;40640;48.130;11.356;2022-07-29T09:07:04;95665.00;;;29.60
54746;BMP180;40640;48.130;11.356;2022-07-29T09:11:07;95668.00;;;29.80
54746;BMP180;40640;48.130;11.356;2022-07-29T09:15:10;95660.00;;;30.80
54746;BMP180;40640;48.130;11.356;2022-07-29T09:19:23;95667.00;;;31.10
54746;BMP180;40640;48.130;11.356;2022-07-29T09:23:27;95684.00;;;28.50
54746;BMP180;40640;48.130;11.356;2022-07-29T09:27:30;95683.00;;;27.90
54746;BMP180;40640;48.130;11.356;2022-07-29T09:31:37;95682.00;;;27.60
54746;BMP180;40640;48.130;11.356;2022-07-29T09:35:40;95681.00;;;28.10
54746;BMP180;40640;48.130;11.356;2022-07-29T09:39:58;95682.00;;;27.80
54746;BMP180;40640;48.130;11.356;2022-07-29T09:44:01;95686.00;;;27.80
54746;BMP180;40640;48.130;11.356;2022-07-29T09:48:13;95682.00;;;27.00
54746;BMP180;40640;48.130;11.356;2022-07-29T09:52:16;95657.00;;;27.80
54746;BMP180;40640;48.130;11.356;2022-07-29T09:56:28;95648.00;;;28.90
54746;BMP180;40640;48.130;11.356;2022-07-29T10:00:42;95646.00;;;30.60
54746;BMP180;40640;48.130;11.356;2022-07-29T10:04:45;95660.00;;;30.70
54746;BMP180;40640;48.130;11.356;2022-07-29T10:08:48;95645.00;;;30.90
54746;BMP180;40640;48.130;11.356;2022-07-29T10:12:55;95646.00;;;30.80
54746;BMP180;40640;48.130;11.356;2022-07-29T10:17:02;95660.00;;;29.00
54746;BMP180;40640;48.130;11.356;2022-07-29T10:21:05;95637.00;;;30.70
54746;BMP180;40640;48.130;11.356;2022-07-29T10:25:09;95636.00;;;31.20
54746;BMP180;40640;48.130;11.356;2022-07-29T10:29:14;95667.00;;;28.80
54746;BMP180;40640;48.130;11.356;2022-07-29T10:33:41;95661.00;;;28.70
54746;BMP180;40640;48.130;11.356;2022-07-29T10:38:05;95654.00;;;30.10
54746;BMP180;40640;48.130;11.356;2022-07-29T10:42:18;95646.00;;;30.90
54746;BMP180;40640;48.130;11.356;2022-07-29T10:46:38;95638.00;;;32.60
54746;BMP180;40640;48.130;11.356;2022-07-29T10:50:55;95650.00;;;31.80
54746;BMP180;40640;48.130;11.356;2022-07-29T10:54:58;95634.00;;;31.00
54746;BMP180;40640;48.130;11.356;2022-07-29T10:59:22;95627.00;;;32.70
54746;BMP180;40640;48.130;11.356;2022-07-29T11:03:47;95626.00;;;32.90
54746;BMP180;40640;48.130;11.356;2022-07-29T11:08:24;95631.00;;;32.90
54746;BMP180;40640;48.130;11.356;2022-07-29T11:12:56;95636.00;;;32.80
54746;BMP180;40640;48.130;11.356;2022-07-29T11:17:01;95635.00;;;33.20
54746;BMP180;40640;48.130;11.356;2022-07-29T11:21:39;95634.00;;;32.60
54746;BMP180;40640;48.130;11.356;2022-07-29T11:26:17;95631.00;;;32.00
54746;BMP180;40640;48.130;11.356;2022-07-29T11:30:47;95619.00;;;31.50
54746;BMP180;40640;48.130;11.356;2022-07-29T11:35:11;95630.00;;;33.00
54746;BMP180;40640;48.130;11.356;2022-07-29T11:39:27;95631.00;;;32.00
54746;BMP180;40640;48.130;11.356;2022-07-29T11:43:45;95634.00;;;31.30
54746;BMP180;40640;48.130;11.356;2022-07-29T11:47:53;95633.00;;;31.60
54746;BMP180;40640;48.130;11.356;2022-07-29T11:52:19;95613.00;;;32.60
54746;BMP180;40640;48.130;11.356;2022-07-29T11:56:25;95613.00;;;32.40
54746;BMP180;40640;48.130;11.356;2022-07-29T12:00:36;95615.00;;;31.70
54746;BMP180;40640;48.130;11.356;2022-07-29T12:04:48;95624.00;;;31.40
54746;BMP180;40640;48.130;11.356;2022-07-29T12:08:52;95618.00;;;30.80
54746;BMP180;40640;48.130;11.356;2022-07-29T12:12:57;95613.00;;;30.80
54746;BMP180;40640;48.130;11.356;2022-07-29T12:17:00;95618.00;;;31.00
54746;BMP180;40640;48.130;11.356;2022-07-29T12:21:03;95614.00;;;30.70
54746;BMP180;40640;48.130;11.356;2022-07-29T12:25:07;95611.00;;;31.70
54746;BMP180;40640;48.130;11.356;2022-07-29T12:29:32;95620.00;;;30.50
54746;BMP180;40640;48.130;11.356;2022-07-29T12:33:36;95621.00;;;29.80
54746;BMP180;40640;48.130;11.356;2022-07-29T12:37:40;95614.00;;;29.20
54746;BMP180;40640;48.130;11.356;2022-07-29T12:41:44;95616.00;;;28.20
54746;BMP180;40640;48.130;11.356;2022-07-29T12:45:50;95619.00;;;28.10
54746;BMP180;40640;48.130;11.356;2022-07-29T12:50:07;95617.00;;;27.50
54746;BMP180;40640;48.130;11.356;2022-07-29T12:54:12;95627.00;;;27.30
54746;BMP180;40640;48.130;11.356;2022-07-29T12:58:26;95626.00;;;27.10
54746;BMP180;40640;48.130;11.356;2022-07-29T13:02:31;95617.00;;;26.90
54746;BMP180;40640;48.130;11.356;2022-07-29T13:06:37;95628.00;;;26.50
54746;BMP180;40640;48.130;11.356;2022-07-29T13:10:42;95625.00;;;26.40
54746;BMP180;40640;48.130;11.356;2022-07-29T13:14:46;95628.00;;;26.40
54746;BMP180;40640;48.130;11.356;2022-07-29T13:19:03;95627.00;;;26.40
54746;BMP180;40640;48.130;11.356;2022-07-29T13:23:06;95626.00;;;26.30
54746;BMP180;40640;48.130;11.356;2022-07-29T13:27:09;95627.00;;;26.20
54746;BMP180;40640;48.130;11.356;2022-07-29T13:31:12;95613.00;;;26.10
54746;BMP180;40640;48.130;11.356;2022-07-29T13:35:17;95631.00;;;26.10
54746;BMP180;40640;48.130;11.356;2022-07-29T13:39:20;95617.00;;;26.10
54746;BMP180;40640;48.130;11.356;2022-07-29T13:43:22;95616.00;;;26.20
54746;BMP180;40640;48.130;11.356;2022-07-29T13:47:26;95607.00;;;26.50
54746;BMP180;40640;48.130;11.356;2022-07-29T13:51:34;95602.00;;;26.80
54746;BMP180;40640;48.130;11.356;2022-07-29T13:55:37;95598.00;;;27.10
54746;BMP180;40640;48.130;11.356;2022-07-29T13:59:41;95595.00;;;27.30
54746;BMP180;40640;48.130;11.356;2022-07-29T14:03:44;95597.00;;;27.20
54746;BMP180;40640;48.130;11.356;2022-07-29T14:07:48;95596.00;;;26.70
54746;BMP180;40640;48.130;11.356;2022-07-29T14:11:51;95593.00;;;26.70
54746;BMP180;40640;48.130;11.356;2022-07-29T14:15:54;95594.00;;;26.50
54746;BMP180;40640;48.130;11.356;2022-07-29T14:19:57;95593.00;;;26.70
54746;BMP180;40640;48.130;11.356;2022-07-29T14:24:01;95581.00;;;27.20
54746;BMP180;40640;48.130;11.356;2022-07-29T14:28:17;95587.00;;;27.60
54746;BMP180;40640;48.130;11.356;2022-07-29T14:32:20;95581.00;;;27.70
54746;BMP180;40640;48.130;11.356;2022-07-29T14:36:23;95580.00;;;27.50
54746;BMP180;40640;48.130;11.356;2022-07-29T14:40:27;95589.00;;;26.60
54746;BMP180;40640;48.130;11.356;2022-07-29T14:44:30;95604.00;;;26.20
54746;BMP180;40640;48.130;11.356;2022-07-29T14:48:33;95605.00;;;26.30
54746;BMP180;40640;48.130;11.356;2022-07-29T14:52:36;95605.00;;;26.20
54746;BMP180;40640;48.130;11.356;2022-07-29T14:56:40;95611.00;;;25.80
54746;BMP180;40640;48.130;11.356;2022-07-29T15:00:47;95618.00;;;25.70
54746;BMP180;40640;48.130;11.356;2022-07-29T15:04:50;95623.00;;;25.60
54746;BMP180;40640;48.130;11.356;2022-07-29T15:08:53;95627.00;;;25.60
54746;BMP180;40640;48.130;11.356;2022-07-29T15:12:57;95636.00;;;25.60
54746;BMP180;40640;48.130;11.356;2022-07-29T15:17:00;95630.00;;;25.50
54746;BMP180;40640;48.130;11.356;2022-07-29T15:21:05;95627.00;;;25.60
54746;BMP180;40640;48.130;11.356;2022-07-29T15:25:09;95613.00;;;25.40
54746;BMP180;40640;48.130;11.356;2022-07-29T15:29:14;95606.00;;;25.50
54746;BMP180;40640;48.130;11.356;2022-07-29T15:33:16;95618.00;;;25.60
54746;BMP180;40640;48.130;11.356;2022-07-29T15:37:19;95611.00;;;25.30
54746;BMP180;40640;48.130;11.356;2022-07-29T15:41:22;95610.00;;;25.40
54746;BMP180;40640;48.130;11.356;2022-07-29T15:45:26;95607.00;;;25.10
54746;BMP180;40640;48.130;11.356;2022-07-29T15:49:35;95603.00;;;25.30
54746;BMP180;40640;48.130;11.356;2022-07-29T15:53:49;95622.00;;;25.00
54746;BMP180;40640;48.130;11.356;2022-07-29T15:57:54;95608.00;;;24.90
54746;BMP180;40640;48.130;11.356;2022-07-29T16:02:02;95615.00;;;24.70
54746;BMP180;40640;48.130;11.356;2022-07-29T16:06:05;95626.00;;;24.50
54746;BMP180;40640;48.130;11.356;2022-07-29T16:10:08;95617.00;;;24.50
54746;BMP180;40640;48.130;11.356;2022-07-29T16:14:11;95627.00;;;24.30
54746;BMP180;40640;48.130;11.356;2022-07-29T16:18:15;95634.00;;;24.20
54746;BMP180;40640;48.130;11.356;2022-07-29T16:22:18;95631.00;;;24.00
54746;BMP180;40640;48.130;11.356;2022-07-29T16:26:21;95639.00;;;24.00
54746;BMP180;40640;48.130;11.356;2022-07-29T16:30:24;95649.00;;;23.80
54746;BMP180;40640;48.130;11.356;2022-07-29T16:34:29;95664.00;;;23.80
54746;BMP180;40640;48.130;11.356;2022-07-29T16:38:32;95665.00;;;23.60
54746;BMP180;40640;48.130;11.356;2022-07-29T16:42:36;95662.00;;;23.40
54746;BMP180;40640;48.130;11.356;2022-07-29T16:46:47;95673.00;;;23.20
54746;BMP180;40640;48.130;11.356;2022-07-29T16:50:51;95672.00;;;23.10
54746;BMP180;40640;48.130;11.356;2022-07-29T16:54:54;95685.00;;;23.00
54746;BMP180;40640;48.130;11.356;2022-07-29T16:58:58;95694.00;;;22.90
54746;BMP180;40640;48.130;11.356;2022-07-29T17:03:01;95700.00;;;22.80
54746;BMP180;40640;48.130;11.356;2022-07-29T17:07:05;95703.00;;;22.80
54746;BMP180;40640;48.130;11.356;2022-07-29T17:11:08;95711.00;;;22.60
54746;BMP180;40640;48.130;11.356;2022-07-29T17:15:12;95721.00;;;22.40
54746;BMP180;40640;48.130;11.356;2022-07-29T17:19:16;95748.00;;;22.10
54746;BMP180;40640;48.130;11.356;2022-07-29T17:23:23;95759.00;;;21.80
54746;BMP180;40640;48.130;11.356;2022-07-29T17:27:26;95749.00;;;21.60
54746;BMP180;40640;48.130;11.356;2022-07-29T17:31:29;95764.00;;;21.30
54746;BMP180;40640;48.130;11.356;2022-07-29T17:35:31;95774.00;;;21.30
54746;BMP180;40640;48.130;11.356;2022-07-29T17:39:53;95772.00;;;21.20
54746;BMP180;40640;48.130;11.356;2022-07-29T17:44:00;95775.00;;;21.10
54746;BMP180;40640;48.130;11.356;2022-07-29T17:48:04;95767.00;;;21.00
54746;BMP180;40640;48.130;11.356;2022-07-29T17:52:07;95772.00;;;20.80
54746;BMP180;40640;48.130;11.356;2022-07-29T17:56:11;95777.00;;;20.50
54746;BMP180;40640;48.130;11.356;2022-07-29T18:00:14;95781.00;;;20.20
54746;BMP180;40640;48.130;11.356;2022-07-29T18:04:17;95780.00;;;19.50
54746;BMP180;40640;48.130;11.356;2022-07-29T18:08:23;95773.00;;;19.20
54746;BMP180;40640;48.130;11.356;2022-07-29T18:12:27;95770.00;;;18.80
54746;BMP180;40640;48.130;11.356;2022-07-29T18:16:30;95773.00;;;19.10
54746;BMP180;40640;48.130;11.356;2022-07-29T18:20:33;95777.00;;;19.40
54746;BMP180;40640;48.130;11.356;2022-07-29T18:24:36;95775.00;;;19.40
54746;BMP180;40640;48.130;11.356;2022-07-29T18:28:40;95781.00;;;19.20
54746;BMP180;40640;48.130;11.356;2022-07-29T18:32:43;95788.00;;;19.00
54746;BMP180;40640;48.130;11.356;2022-07-29T18:37:06;95789.00;;;19.00
54746;BMP180;40640;48.130;11.356;2022-07-29T18:41:08;95796.00;;;18.90
54746;BMP180;40640;48.130;11.356;2022-07-29T18:45:13;95807.00;;;18.70
54746;BMP180;40640;48.130;11.356;2022-07-29T18:49:20;95809.00;;;18.70
54746;BMP180;40640;48.130;11.356;2022-07-29T18:53:23;95801.00;;;18.80
54746;BMP180;40640;48.130;11.356;2022-07-29T18:57:26;95820.00;;;18.60
54746;BMP180;40640;48.130;11.356;2022-07-29T19:01:50;95818.00;;;18.50
54746;BMP180;40640;48.130;11.356;2022-07-29T19:05:54;95817.00;;;18.40
54746;BMP180;40640;48.130;11.356;2022-07-29T19:09:56;95816.00;;;18.40
54746;BMP180;40640;48.130;11.356;2022-07-29T19:13:59;95811.00;;;18.40
54746;BMP180;40640;48.130;11.356;2022-07-29T19:18:03;95816.00;;;18.30
54746;BMP180;40640;48.130;11.356;2022-07-29T19:22:07;95817.00;;;18.40
54746;BMP180;40640;48.130;11.356;2022-07-29T19:26:10;95828.00;;;18.30
54746;BMP180;40640;48.130;11.356;2022-07-29T19:30:21;95821.00;;;18.10
54746;BMP180;40640;48.130;11.356;2022-07-29T19:34:25;95822.00;;;18.30
54746;BMP180;40640;48.130;11.356;2022-07-29T19:38:28;95822.00;;;18.20
54746;BMP180;40640;48.130;11.356;2022-07-29T19:42:31;95833.00;;;18.10
54746;BMP180;40640;48.130;11.356;2022-07-29T19:46:33;95841.00;;;18.00
54746;BMP180;40640;48.130;11.356;2022-07-29T19:50:38;95848.00;;;18.10
54746;BMP180;40640;48.130;11.356;2022-07-29T19:54:43;95840.00;;;17.90
54746;BMP180;40640;48.130;11.356;2022-07-29T19:58:46;95842.00;;;17.90
54746;BMP180;40640;48.130;11.356;2022-07-29T20:02:49;95842.00;;;17.80
54746;BMP180;40640;48.130;11.356;2022-07-29T20:06:53;95849.00;;;17.80
54746;BMP180;40640;48.130;11.356;2022-07-29T20:11:02;95843.00;;;17.90
54746;BMP180;40640;48.130;11.356;2022-07-29T20:15:05;95851.00;;;17.70
54746;BMP180;40640;48.130;11.356;2022-07-29T20:19:16;95845.00;;;17.60
54746;BMP180;40640;48.130;11.356;2022-07-29T20:23:21;95843.00;;;17.60
54746;BMP180;40640;48.130;11.356;2022-07-29T20:27:23;95843.00;;;17.40
54746;BMP180;40640;48.130;11.356;2022-07-29T20:31:26;95848.00;;;17.40
54746;BMP180;40640;48.130;11.356;2022-07-29T20:35:31;95828.00;;;17.50
54746;BMP180;40640;48.130;11.356;2022-07-29T20:39:35;95845.00;;;17.60
54746;BMP180;40640;48.130;11.356;2022-07-29T20:43:38;95838.00;;;17.50
54746;BMP180;40640;48.130;11.356;2022-07-29T20:47:41;95834.00;;;17.40
54746;BMP180;40640;48.130;11.356;2022-07-29T20:51:44;95837.00;;;17.40
54746;BMP180;40640;48.130;11.356;2022-07-29T20:55:48;95830.00;;;17.60
54746;BMP180;40640;48.130;11.356;2022-07-29T20:59:51;95832.00;;;17.50
54746;BMP180;40640;48.130;11.356;2022-07-29T21:03:54;95833.00;;;17.50
54746;BMP180;40640;48.130;11.356;2022-07-29T21:07:57;95826.00;;;17.60
54746;BMP180;40640;48.130;11.356;2022-07-29T21:12:02;95830.00;;;17.50
54746;BMP180;40640;48.130;11.356;2022-07-29T21:16:06;95830.00;;;17.60
54746;BMP180;40640;48.130;11.356;2022-07-29T21:20:16;95839.00;;;17.30
54746;BMP180;40640;48.130;11.356;2022-07-29T21:24:19;95819.00;;;17.20
54746;BMP180;40640;48.130;11.356;2022-07-29T21:28:23;95820.00;;;17.10
54746;BMP180;40640;48.130;11.356;2022-07-29T21:32:29;95823.00;;;17.10
54746;BMP180;40640;48.130;11.356;2022-07-29T21:36:32;95823.00;;;17.00
54746;BMP180;40640;48.130;11.356;2022-07-29T21:40:51;95829.00;;;17.00
54746;BMP180;40640;48.130;11.356;2022-07-29T21:44:55;95829.00;;;17.00
54746;BMP180;40640;48.130;11.356;2022-07-29T21:48:58;95825.00;;;17.20
54746;BMP180;40640;48.130;11.356;2022-07-29T21:53:01;95827.00;;;17.20
54746;BMP180;40640;48.130;11.356;2022-07-29T21:57:04;95819.00;;;17.20
54746;BMP180;40640;48.130;11.356;2022-07-29T22:01:09;95830.00;;;17.20
54746;BMP180;40640;48.130;11.356;2022-07-29T22:05:13;95833.00;;;17.40
54746;BMP180;40640;48.130;11.356;2022-07-29T22:09:16;95831.00;;;17.50
54746;BMP180;40640;48.130;11.356;2022-07-29T22:13:18;95829.00;;;17.40
54746;BMP180;40640;48.130;11.356;2022-07-29T22:17:23;95834.00;;;17.20
54746;BMP180;40640;48.130;11.356;2022-07-29T22:21:26;95837.00;;;17.10
54746;BMP180;40640;48.130;11.356;2022-07-29T22:25:28;95846.00;;;17.40
54746;BMP180;40640;48.130;11.356;2022-07-29T22:29:31;95839.00;;;17.60
54746;BMP180;40640;48.130;11.356;2022-07-29T22:33:36;95848.00;;;17.60
54746;BMP180;40640;48.130;11.356;2022-07-29T22:37:39;95848.00;;;17.60
54746;BMP180;40640;48.130;11.356;2022-07-29T22:41:42;95828.00;;;17.10
54746;BMP180;40640;48.130;11.356;2022-07-29T22:45:45;95830.00;;;16.90
54746;BMP180;40640;48.130;11.356;2022-07-29T22:49:49;95827.00;;;16.80
54746;BMP180;40640;48.130;11.356;2022-07-29T22:53:52;95818.00;;;16.90
54746;BMP180;40640;48.130;11.356;2022-07-29T22:57:55;95818.00;;;16.90
54746;BMP180;40640;48.130;11.356;2022-07-29T23:01:57;95812.00;;;17.00
54746;BMP180;40640;48.130;11.356;2022-07-29T23:06:02;95799.00;;;17.10
54746;BMP180;40640;48.130;11.356;2022-07-29T23:10:05;95796.00;;;17.00
54746;BMP180;40640;48.130;11.356;2022-07-29T23:14:09;95784.00;;;17.00
54746;BMP180;40640;48.130;11.356;2022-07-29T23:18:11;95789.00;;;17.10